aviador You're here:

YBWP Decoded Metar

WEIPA in AUSTRALIA
Report Time2017-10-20 12:00:00
UTC Time2017-10-20 12:19:40
Flight Rules vfr VFR
Wind150° at 06 kt
W.Decomp.*RWY 12: 5.5 kt HW 2.4 kt RCW
W.Rank150° ranks 8
Current wind is above 150° avg. (3.5)
Visibility9999 m
Phenomena:N/A
Clouds:Scattered 066 Hf
Scattered 085 Hf
Scattered 110 Hf
Expected CloudBase > 800 ft AGL from Temp-Dew spread
CeilingNone
Temp25°C (ISA +10)
Dew Point23°C (89% RH)
QNH1013 hPa
Density Alt1,575 ft
Elevation39 ft
Report Wrong Elevation
Raw Report
METAR YBWP 201200Z AUTO 15006KT 9999 // SCT066 SCT085 SCT110 25/23 Q1013=

Extra information for YBWP:More info

Metar Taf Metar & Taf Last 4 Metars F.Rules Stats Wind Profile Meteogram Temp Stats Airport Information Weather charts Add Link Nearby VenuesMetar ALERT Operation Metar Decoded Social comments